createdAt,value
2018-07-26T00:00:53.429Z,21.12
2018-07-26T00:03:22.750Z,21.00
2018-07-26T00:05:52.009Z,20.95
2018-07-26T00:08:21.265Z,20.86
2018-07-26T00:10:50.509Z,20.78
2018-07-26T00:13:19.517Z,20.76
2018-07-26T00:15:48.739Z,20.72
2018-07-26T00:18:18.002Z,20.69
2018-07-26T00:20:47.242Z,20.78
2018-07-26T00:23:16.498Z,20.73
2018-07-26T00:25:45.745Z,20.68
2018-07-26T00:28:14.996Z,20.58
2018-07-26T00:30:44.200Z,20.61
2018-07-26T00:33:13.478Z,20.59
2018-07-26T00:35:42.711Z,20.57
2018-07-26T00:38:12.014Z,20.52
2018-07-26T00:40:41.276Z,20.45
2018-07-26T00:43:10.537Z,20.47
2018-07-26T00:45:39.788Z,20.43
2018-07-26T00:48:09.037Z,20.38
2018-07-26T00:50:38.309Z,20.42
2018-07-26T00:53:07.539Z,20.38
2018-07-26T00:55:36.917Z,20.30
2018-07-26T00:58:06.442Z,20.29
2018-07-26T01:00:35.954Z,20.26
2018-07-26T01:03:05.249Z,20.21
2018-07-26T01:05:34.505Z,20.16
2018-07-26T01:08:03.779Z,20.14
2018-07-26T01:10:33.078Z,20.03
2018-07-26T01:13:02.393Z,20.05
2018-07-26T01:15:31.734Z,20.05
2018-07-26T01:18:01.012Z,20.05
2018-07-26T01:20:30.387Z,20.04
2018-07-26T01:22:59.642Z,20.03
2018-07-26T01:25:28.902Z,19.99
2018-07-26T01:27:58.161Z,19.91
2018-07-26T01:30:27.501Z,19.91
2018-07-26T01:32:56.765Z,19.89
2018-07-26T01:35:26.083Z,19.85
2018-07-26T01:37:55.387Z,19.77
2018-07-26T01:40:24.698Z,19.68
2018-07-26T01:43:11.169Z,19.62
2018-07-26T01:45:40.669Z,19.60
2018-07-26T01:48:09.954Z,19.64
2018-07-26T01:50:39.513Z,19.60
2018-07-26T01:53:08.984Z,19.66
2018-07-26T01:55:38.297Z,19.57
2018-07-26T01:58:07.565Z,19.56
2018-07-26T02:00:36.863Z,19.48
2018-07-26T02:03:06.086Z,19.44
2018-07-26T02:05:35.313Z,19.40
2018-07-26T02:08:04.586Z,19.38
2018-07-26T02:10:33.856Z,19.37
2018-07-26T02:13:03.082Z,19.35
2018-07-26T02:15:32.298Z,19.35
2018-07-26T02:18:01.538Z,19.38
2018-07-26T02:20:30.769Z,19.33
2018-07-26T02:23:00.016Z,19.33
2018-07-26T02:25:29.267Z,19.33
2018-07-26T02:27:58.477Z,19.31
2018-07-26T02:30:27.742Z,19.06
2018-07-26T02:32:56.971Z,18.91
2018-07-26T02:35:26.250Z,18.90
2018-07-26T02:37:55.543Z,18.97
2018-07-26T02:40:24.780Z,18.91
2018-07-26T02:42:54.074Z,18.95
2018-07-26T02:45:23.330Z,19.00
2018-07-26T02:47:52.578Z,18.93
2018-07-26T02:50:21.972Z,18.97
2018-07-26T02:52:51.196Z,18.93
2018-07-26T02:55:20.557Z,18.96
2018-07-26T02:57:49.786Z,18.91
2018-07-26T03:00:19.023Z,18.91
2018-07-26T03:02:48.260Z,18.83
2018-07-26T03:05:17.590Z,18.86
2018-07-26T03:07:46.587Z,18.78
2018-07-26T03:10:15.826Z,18.69
2018-07-26T03:12:45.203Z,18.65
2018-07-26T03:15:14.425Z,18.63
2018-07-26T03:17:43.721Z,18.80
2018-07-26T03:20:13.046Z,18.80
2018-07-26T03:22:42.311Z,18.76
2018-07-26T03:25:11.522Z,18.80
2018-07-26T03:27:40.818Z,18.77
2018-07-26T03:30:10.054Z,18.75
2018-07-26T03:32:39.293Z,18.69
2018-07-26T03:35:08.504Z,18.67
2018-07-26T03:37:37.757Z,18.73
2018-07-26T03:40:07.303Z,18.72
2018-07-26T03:42:36.525Z,18.66
2018-07-26T03:45:06.314Z,18.61
2018-07-26T03:47:35.568Z,18.63
2018-07-26T03:50:05.206Z,18.63
2018-07-26T03:52:34.471Z,18.61
2018-07-26T03:55:03.716Z,18.61
2018-07-26T03:57:32.999Z,18.63
2018-07-26T04:00:02.286Z,18.62
2018-07-26T04:02:31.651Z,18.62
2018-07-26T04:05:00.962Z,18.62
2018-07-26T04:07:30.289Z,18.65
2018-07-26T04:09:59.555Z,18.62
2018-07-26T04:12:28.922Z,18.62
2018-07-26T04:14:58.290Z,18.66
2018-07-26T04:17:27.622Z,18.63
2018-07-26T04:19:56.934Z,18.60
2018-07-26T04:22:26.168Z,18.62
2018-07-26T04:24:55.581Z,18.60
2018-07-26T04:27:24.860Z,18.61
2018-07-26T04:29:54.237Z,18.66
2018-07-26T04:32:23.520Z,18.71
2018-07-26T04:34:52.887Z,18.73
2018-07-26T04:37:22.142Z,18.76
2018-07-26T04:39:51.176Z,18.83
2018-07-26T04:42:20.621Z,18.87
2018-07-26T04:44:49.932Z,18.96
2018-07-26T04:47:19.228Z,19.02
2018-07-26T04:49:48.637Z,19.10
2018-07-26T04:52:18.003Z,19.13
2018-07-26T04:54:47.272Z,19.18
2018-07-26T04:57:16.535Z,19.27
2018-07-26T04:59:45.842Z,19.43
2018-07-26T05:02:15.190Z,19.58
2018-07-26T05:04:44.482Z,19.75
2018-07-26T05:07:13.745Z,19.85
2018-07-26T05:09:43.072Z,20.49
2018-07-26T05:12:12.350Z,21.56
2018-07-26T05:14:41.628Z,22.29
2018-07-26T05:17:10.888Z,22.37
2018-07-26T05:19:40.155Z,22.88
2018-07-26T05:22:09.406Z,23.48
2018-07-26T05:24:38.682Z,23.24
2018-07-26T05:27:08.503Z,23.87
2018-07-26T05:29:37.897Z,24.08
2018-07-26T05:32:07.167Z,23.72
2018-07-26T05:34:36.590Z,24.08
2018-07-26T05:37:05.827Z,24.11
2018-07-26T05:39:35.080Z,24.63
2018-07-26T05:42:04.353Z,24.72
2018-07-26T05:44:33.572Z,24.55
2018-07-26T05:47:02.784Z,24.61
2018-07-26T05:49:32.017Z,24.98
2018-07-26T05:52:01.269Z,25.03
2018-07-26T05:54:30.522Z,25.15
2018-07-26T05:57:00.066Z,25.63
2018-07-26T05:59:29.317Z,25.26
2018-07-26T06:01:58.802Z,25.76
2018-07-26T06:04:28.090Z,25.92
2018-07-26T06:06:57.426Z,25.60
2018-07-26T06:09:26.777Z,25.78
2018-07-26T06:11:56.178Z,25.83
2018-07-26T06:14:25.500Z,25.87
2018-07-26T06:16:54.814Z,24.93
2018-07-26T06:19:24.203Z,24.91
2018-07-26T06:21:53.504Z,25.91
2018-07-26T06:24:22.878Z,25.97
2018-07-26T06:26:52.207Z,25.70
2018-07-26T06:29:21.765Z,26.32
2018-07-26T06:31:51.120Z,25.81
2018-07-26T06:34:20.754Z,25.53
2018-07-26T06:36:50.094Z,25.51
2018-07-26T06:39:19.502Z,26.19
2018-07-26T06:41:48.942Z,25.87
2018-07-26T06:44:18.767Z,26.08
2018-07-26T06:46:48.095Z,26.32
2018-07-26T06:49:17.407Z,25.91
2018-07-26T06:51:46.765Z,25.81
2018-07-26T06:54:16.170Z,26.07
2018-07-26T06:56:45.511Z,26.33
2018-07-26T06:59:14.986Z,26.26
2018-07-26T07:01:44.341Z,26.20
2018-07-26T07:04:13.660Z,25.88
2018-07-26T07:06:42.788Z,25.74
2018-07-26T07:09:12.798Z,26.39
2018-07-26T07:11:42.199Z,26.51
2018-07-26T07:14:11.582Z,26.48
2018-07-26T07:16:41.066Z,26.60
2018-07-26T07:19:10.442Z,26.68
2018-07-26T07:21:39.718Z,26.92
2018-07-26T07:24:09.074Z,27.02
2018-07-26T07:26:38.346Z,27.12
2018-07-26T07:29:07.853Z,27.13
2018-07-26T07:31:37.192Z,27.13
2018-07-26T07:34:06.718Z,27.39
2018-07-26T07:36:35.992Z,27.24
2018-07-26T07:39:08.904Z,27.60
2018-07-26T07:41:38.347Z,27.81
2018-07-26T07:44:08.462Z,27.53
2018-07-26T07:46:37.940Z,27.78
2018-07-26T07:49:07.611Z,27.95
2018-07-26T07:51:36.898Z,27.88
2018-07-26T07:54:06.204Z,28.01
2018-07-26T07:56:35.457Z,27.75
2018-07-26T07:59:04.973Z,27.66
2018-07-26T08:01:34.295Z,27.60
2018-07-26T08:04:03.577Z,28.00
2018-07-26T08:06:32.973Z,27.76
2018-07-26T08:09:02.249Z,27.70
2018-07-26T08:11:31.567Z,28.03
2018-07-26T08:14:00.783Z,28.38
2018-07-26T08:16:30.035Z,28.35
2018-07-26T08:18:59.310Z,28.72
2018-07-26T08:21:28.566Z,28.38
2018-07-26T08:23:57.799Z,28.04
2018-07-26T08:26:27.103Z,28.55
2018-07-26T08:28:56.148Z,29.02
2018-07-26T08:31:25.423Z,28.84
2018-07-26T08:33:54.779Z,28.99
2018-07-26T08:36:24.193Z,28.84
2018-07-26T08:38:53.470Z,29.00
2018-07-26T08:41:29.190Z,29.04
2018-07-26T08:43:58.470Z,29.56
2018-07-26T08:46:27.713Z,29.25
2018-07-26T08:48:56.970Z,29.25
2018-07-26T08:51:26.534Z,29.52
2018-07-26T08:53:55.858Z,29.50
2018-07-26T08:56:25.205Z,29.40
2018-07-26T08:58:54.533Z,29.69
2018-07-26T09:01:23.837Z,29.82
2018-07-26T09:03:53.224Z,30.03
2018-07-26T09:06:22.682Z,30.08
2018-07-26T09:08:52.079Z,30.13
2018-07-26T09:11:21.398Z,30.22
2018-07-26T09:13:50.793Z,30.36
2018-07-26T09:16:20.042Z,30.10
2018-07-26T09:18:49.549Z,30.39
2018-07-26T09:21:18.852Z,31.06
2018-07-26T09:23:48.136Z,30.77
2018-07-26T09:26:17.721Z,30.88
2018-07-26T09:28:46.990Z,30.70
2018-07-26T09:31:16.460Z,31.31
2018-07-26T09:33:45.871Z,30.53
2018-07-26T09:36:15.133Z,30.48
2018-07-26T09:38:44.560Z,31.13
2018-07-26T09:41:14.842Z,31.18
2018-07-26T09:43:44.865Z,30.90
2018-07-26T09:46:14.495Z,30.85
2018-07-26T09:48:44.080Z,31.19
2018-07-26T09:51:13.439Z,30.48
2018-07-26T09:53:42.735Z,30.71
2018-07-26T09:56:12.029Z,30.75
2018-07-26T09:58:41.425Z,31.01
2018-07-26T10:01:15.901Z,30.98
2018-07-26T10:03:45.262Z,31.10
2018-07-26T10:06:14.589Z,31.62
2018-07-26T10:08:44.050Z,31.57
2018-07-26T10:11:13.370Z,31.56
2018-07-26T10:13:42.678Z,31.24
2018-07-26T10:16:11.999Z,31.39
2018-07-26T10:18:41.054Z,31.21
2018-07-26T10:21:10.415Z,31.61
2018-07-26T10:23:39.759Z,31.62
2018-07-26T10:26:09.057Z,31.20
2018-07-26T10:28:38.451Z,31.44
2018-07-26T10:31:08.183Z,31.82
2018-07-26T10:33:37.676Z,31.29
2018-07-26T10:36:06.987Z,31.60
2018-07-26T10:38:36.384Z,32.09
2018-07-26T10:41:05.720Z,31.99
2018-07-26T10:43:35.030Z,31.73
2018-07-26T10:46:04.400Z,31.83
2018-07-26T10:48:33.761Z,31.62
2018-07-26T10:51:03.078Z,31.70
2018-07-26T10:53:32.363Z,31.77
2018-07-26T10:56:01.675Z,32.10
2018-07-26T10:58:31.002Z,32.04
2018-07-26T11:01:00.351Z,31.88
2018-07-26T11:03:29.815Z,32.40
2018-07-26T11:05:59.285Z,32.10
2018-07-26T11:08:28.750Z,32.26
2018-07-26T11:10:58.135Z,31.91
2018-07-26T11:13:27.461Z,32.17
2018-07-26T11:15:56.817Z,32.50
2018-07-26T11:18:26.769Z,32.68
2018-07-26T11:20:56.158Z,32.40
2018-07-26T11:23:25.589Z,32.21
2018-07-26T11:25:54.902Z,32.18
2018-07-26T11:28:24.197Z,32.53
2018-07-26T11:30:53.570Z,32.50
2018-07-26T11:33:22.873Z,32.49
2018-07-26T11:35:52.200Z,32.44
2018-07-26T11:38:21.492Z,32.51
2018-07-26T11:40:50.579Z,32.67
2018-07-26T11:43:19.953Z,32.53
2018-07-26T11:45:49.411Z,32.86
2018-07-26T11:48:18.714Z,32.45
2018-07-26T11:50:48.152Z,33.17
2018-07-26T11:53:17.567Z,32.02
2018-07-26T11:55:46.902Z,31.88
2018-07-26T11:58:16.220Z,32.10
2018-07-26T12:00:45.525Z,32.23
2018-07-26T12:03:14.808Z,31.96
2018-07-26T12:05:44.134Z,32.23
2018-07-26T12:08:13.434Z,32.45
2018-07-26T12:10:42.706Z,32.58
2018-07-26T12:13:12.026Z,32.91
2018-07-26T12:15:41.378Z,32.99
2018-07-26T12:18:10.730Z,33.01
2018-07-26T12:20:40.078Z,32.28
2018-07-26T12:23:09.429Z,32.94
2018-07-26T12:25:38.700Z,32.75
2018-07-26T12:28:08.450Z,32.82
2018-07-26T12:30:37.710Z,33.17
2018-07-26T12:33:06.993Z,33.15
2018-07-26T12:35:36.429Z,33.20
2018-07-26T12:38:05.702Z,33.18
2018-07-26T12:40:35.004Z,33.04
2018-07-26T12:43:04.270Z,33.15
2018-07-26T12:45:33.605Z,33.27
2018-07-26T12:48:03.002Z,32.96
2018-07-26T12:50:32.455Z,33.07
2018-07-26T12:53:01.911Z,33.11
2018-07-26T12:55:30.927Z,32.74
2018-07-26T12:58:00.320Z,33.17
2018-07-26T13:00:29.630Z,32.43
2018-07-26T13:02:59.001Z,31.97
2018-07-26T13:05:28.327Z,31.64
2018-07-26T13:07:57.706Z,31.23
2018-07-26T13:10:27.215Z,31.55
2018-07-26T13:12:56.308Z,32.51
2018-07-26T13:15:25.658Z,32.54
2018-07-26T13:17:54.986Z,32.58
2018-07-26T13:20:24.278Z,32.88
2018-07-26T13:22:53.317Z,32.74
2018-07-26T13:25:22.630Z,33.16
2018-07-26T13:27:52.031Z,33.07
2018-07-26T13:30:21.310Z,33.37
2018-07-26T13:32:50.695Z,33.11
2018-07-26T13:35:20.189Z,32.63
2018-07-26T13:37:49.512Z,33.05
2018-07-26T13:40:18.869Z,33.22
2018-07-26T13:42:48.133Z,33.24
2018-07-26T13:45:17.432Z,32.90
2018-07-26T13:47:46.788Z,33.00
2018-07-26T13:50:16.125Z,33.08
2018-07-26T13:52:45.287Z,32.85
2018-07-26T13:55:14.638Z,33.22
2018-07-26T13:57:44.818Z,33.23
2018-07-26T14:00:14.890Z,33.31
2018-07-26T14:02:45.063Z,33.35
2018-07-26T14:05:14.522Z,33.30
2018-07-26T14:07:44.542Z,33.66
2018-07-26T14:10:13.941Z,32.83
2018-07-26T14:12:43.841Z,33.29
2018-07-26T14:15:13.386Z,33.36
2018-07-26T14:17:42.889Z,33.19
2018-07-26T14:20:13.051Z,33.47
2018-07-26T14:22:42.580Z,33.91
2018-07-26T14:25:11.930Z,33.65
2018-07-26T14:27:41.055Z,33.57
2018-07-26T14:30:10.833Z,33.43
2018-07-26T14:32:40.172Z,33.00
2018-07-26T14:35:09.506Z,32.18
2018-07-26T14:37:38.814Z,32.68
2018-07-26T14:40:08.124Z,32.19
2018-07-26T14:42:37.186Z,32.65
2018-07-26T14:45:06.799Z,32.25
2018-07-26T14:47:36.126Z,32.56
2018-07-26T14:50:05.840Z,32.67
2018-07-26T14:52:35.145Z,32.65
2018-07-26T14:55:04.743Z,32.34
2018-07-26T14:57:34.282Z,33.01
2018-07-26T15:00:03.725Z,33.30
2018-07-26T15:02:33.038Z,33.48
2018-07-26T15:05:02.361Z,33.46
2018-07-26T15:07:31.643Z,33.39
2018-07-26T15:10:00.964Z,33.43
2018-07-26T15:12:30.206Z,33.06
2018-07-26T15:14:59.482Z,32.83
2018-07-26T15:17:28.730Z,32.77
2018-07-26T15:19:57.996Z,32.94
2018-07-26T15:22:27.319Z,32.90
2018-07-26T15:24:56.610Z,32.73
2018-07-26T15:27:25.925Z,32.95
2018-07-26T15:29:55.355Z,33.22
2018-07-26T15:32:24.751Z,32.99
2018-07-26T15:34:54.167Z,32.96
2018-07-26T15:37:23.473Z,32.96
2018-07-26T15:39:52.797Z,33.00
2018-07-26T15:42:22.115Z,32.99
2018-07-26T15:44:51.526Z,32.85
2018-07-26T15:47:20.769Z,32.97
2018-07-26T15:49:50.091Z,32.64
2018-07-26T15:52:19.345Z,32.64
2018-07-26T15:54:48.649Z,32.65
2018-07-26T15:57:17.957Z,32.81
2018-07-26T15:59:47.226Z,32.91
2018-07-26T16:02:16.591Z,32.65
2018-07-26T16:04:45.930Z,32.45
2018-07-26T16:07:15.317Z,32.48
2018-07-26T16:09:44.633Z,32.52
2018-07-26T16:12:14.076Z,32.51
2018-07-26T16:14:43.398Z,32.53
2018-07-26T16:17:12.686Z,32.61
2018-07-26T16:19:42.077Z,32.59
2018-07-26T16:22:11.381Z,32.33
2018-07-26T16:24:40.764Z,32.42
2018-07-26T16:27:10.098Z,32.30
2018-07-26T16:29:39.416Z,32.26
2018-07-26T16:32:08.823Z,32.19
2018-07-26T16:34:38.150Z,32.28
2018-07-26T16:37:07.521Z,32.27
2018-07-26T16:39:36.894Z,32.19
2018-07-26T16:42:06.339Z,31.86
2018-07-26T16:44:35.739Z,31.94
2018-07-26T16:47:05.245Z,31.97
2018-07-26T16:49:34.695Z,31.92
2018-07-26T16:52:04.200Z,31.75
2018-07-26T16:54:33.494Z,31.66
2018-07-26T16:57:02.887Z,31.76
2018-07-26T16:59:32.406Z,32.31
2018-07-26T17:02:02.170Z,33.52
2018-07-26T17:04:31.548Z,34.58
2018-07-26T17:07:01.507Z,34.79
2018-07-26T17:09:30.850Z,34.80
2018-07-26T17:12:00.348Z,34.70
2018-07-26T17:14:29.675Z,35.45
2018-07-26T17:16:59.083Z,35.60
2018-07-26T17:19:29.143Z,35.56
2018-07-26T17:21:58.440Z,35.52
2018-07-26T17:24:27.856Z,36.45
2018-07-26T17:26:57.279Z,34.46
2018-07-26T17:29:26.654Z,35.56
2018-07-26T17:31:56.117Z,35.44
2018-07-26T17:34:25.432Z,33.64
2018-07-26T17:36:54.743Z,32.75
2018-07-26T17:39:24.000Z,32.15
2018-07-26T17:41:53.397Z,31.56
2018-07-26T17:44:22.701Z,31.44
2018-07-26T17:46:52.062Z,31.09
2018-07-26T17:49:21.411Z,30.81
2018-07-26T17:51:50.730Z,30.61
2018-07-26T17:54:20.102Z,30.55
2018-07-26T17:56:49.442Z,30.30
2018-07-26T17:59:18.720Z,30.06
2018-07-26T18:01:48.181Z,30.04
2018-07-26T18:04:17.571Z,29.97
2018-07-26T18:06:47.083Z,30.03
2018-07-26T18:09:16.498Z,30.03
2018-07-26T18:11:45.714Z,30.83
2018-07-26T18:14:14.745Z,30.48
2018-07-26T18:16:44.236Z,30.22
2018-07-26T18:19:13.365Z,30.08
2018-07-26T18:21:43.094Z,29.84
2018-07-26T18:24:12.363Z,29.68
2018-07-26T18:26:41.633Z,29.50
2018-07-26T18:29:11.120Z,29.27
2018-07-26T18:31:40.607Z,29.13
2018-07-26T18:34:10.405Z,29.05
2018-07-26T18:36:39.797Z,29.02
2018-07-26T18:39:11.849Z,28.96
2018-07-26T18:41:41.305Z,28.74
2018-07-26T18:44:11.165Z,28.57
2018-07-26T18:46:40.510Z,28.39
2018-07-26T18:49:10.241Z,28.22
2018-07-26T18:51:40.669Z,28.03
2018-07-26T18:54:11.217Z,27.85
2018-07-26T18:56:40.250Z,27.62
2018-07-26T18:59:10.517Z,27.48
2018-07-26T19:01:39.836Z,27.27
2018-07-26T19:04:09.524Z,27.30
2018-07-26T19:06:38.655Z,27.40
2018-07-26T19:09:11.642Z,27.27
2018-07-26T19:11:41.657Z,27.10
2018-07-26T19:14:11.555Z,27.06
2018-07-26T19:16:40.961Z,26.85
2018-07-26T19:19:11.008Z,26.66
2018-07-26T19:21:40.382Z,26.51
2018-07-26T19:24:10.188Z,26.25
2018-07-26T19:26:39.510Z,26.19
2018-07-26T19:29:09.043Z,26.06
2018-07-26T19:31:38.691Z,25.94
2018-07-26T19:34:11.145Z,25.74
2018-07-26T19:36:40.507Z,25.59
2018-07-26T19:39:11.837Z,25.49
2018-07-26T19:41:41.848Z,25.35
2018-07-26T19:44:11.348Z,25.24
2018-07-26T19:46:40.575Z,25.15
2018-07-26T19:49:09.925Z,25.01
2018-07-26T19:51:39.270Z,24.92
2018-07-26T19:54:08.757Z,24.88
2018-07-26T19:56:38.021Z,24.76
2018-07-26T19:59:07.381Z,24.56
2018-07-26T20:01:36.525Z,24.41
2018-07-26T20:04:06.064Z,24.37
2018-07-26T20:06:35.425Z,24.41
2018-07-26T20:09:08.223Z,24.27
2018-07-26T20:11:37.591Z,24.09
2018-07-26T20:14:07.842Z,24.03
2018-07-26T20:16:37.540Z,23.92
2018-07-26T20:19:07.022Z,23.84
2018-07-26T20:21:36.452Z,23.77
2018-07-26T20:24:05.843Z,23.74
2018-07-26T20:26:35.188Z,23.77
2018-07-26T20:29:04.476Z,23.77
2018-07-26T20:31:34.243Z,23.76
2018-07-26T20:34:03.556Z,23.67
2018-07-26T20:36:32.878Z,23.61
2018-07-26T20:39:02.310Z,23.51
2018-07-26T20:41:31.662Z,23.47
2018-07-26T20:44:01.112Z,23.41
2018-07-26T20:46:30.491Z,23.38
2018-07-26T20:48:59.819Z,23.20
2018-07-26T20:51:29.170Z,23.13
2018-07-26T20:53:58.615Z,23.13
2018-07-26T20:56:27.872Z,23.11
2018-07-26T20:58:57.174Z,23.09
2018-07-26T21:01:26.443Z,23.02
2018-07-26T21:03:55.755Z,23.01
2018-07-26T21:06:25.046Z,22.96
2018-07-26T21:08:54.400Z,22.86
2018-07-26T21:11:23.714Z,22.79
2018-07-26T21:13:53.098Z,22.63
2018-07-26T21:16:22.509Z,22.54
2018-07-26T21:18:51.771Z,22.50
2018-07-26T21:21:21.134Z,22.55
2018-07-26T21:23:50.421Z,22.54
2018-07-26T21:26:19.728Z,22.49
2018-07-26T21:28:48.746Z,22.55
2018-07-26T21:31:18.037Z,22.47
2018-07-26T21:33:47.323Z,22.40
2018-07-26T21:36:16.625Z,22.35
2018-07-26T21:38:45.889Z,22.33
2018-07-26T21:41:15.555Z,22.30
2018-07-26T21:43:44.816Z,22.24
2018-07-26T21:46:14.361Z,22.15
2018-07-26T21:48:43.673Z,22.14
2018-07-26T21:51:13.138Z,22.16
2018-07-26T21:53:42.504Z,22.15
2018-07-26T21:56:11.804Z,22.07
2018-07-26T21:58:41.076Z,21.97
2018-07-26T22:01:10.367Z,21.88
2018-07-26T22:03:39.671Z,21.85
2018-07-26T22:06:09.030Z,21.86
2018-07-26T22:08:38.383Z,21.84
2018-07-26T22:11:07.755Z,21.81
2018-07-26T22:13:37.108Z,21.67
2018-07-26T22:16:06.585Z,21.72
2018-07-26T22:18:35.847Z,21.63
2018-07-26T22:21:05.199Z,21.58
2018-07-26T22:23:34.486Z,21.55
2018-07-26T22:26:03.773Z,21.48
2018-07-26T22:28:33.143Z,21.44
2018-07-26T22:31:02.558Z,21.40
2018-07-26T22:33:31.935Z,21.36
2018-07-26T22:36:01.241Z,21.33
2018-07-26T22:38:30.560Z,21.21
2018-07-26T22:40:59.924Z,21.10
2018-07-26T22:43:29.259Z,21.07
2018-07-26T22:45:58.571Z,21.06
2018-07-26T22:48:27.852Z,21.07
2018-07-26T22:50:57.161Z,21.12
2018-07-26T22:53:26.445Z,21.10
2018-07-26T22:55:55.754Z,21.08
2018-07-26T22:58:25.081Z,21.03
2018-07-26T23:00:54.393Z,21.07
2018-07-26T23:03:23.637Z,21.06
2018-07-26T23:05:52.904Z,20.98
2018-07-26T23:08:22.312Z,20.82
2018-07-26T23:10:51.574Z,20.68
2018-07-26T23:13:20.991Z,20.67
2018-07-26T23:15:50.302Z,20.66
2018-07-26T23:18:19.721Z,20.68
2018-07-26T23:20:49.008Z,20.70
2018-07-26T23:23:18.329Z,20.60
2018-07-26T23:25:47.612Z,20.60
2018-07-26T23:28:17.009Z,20.62
2018-07-26T23:30:46.032Z,20.67
2018-07-26T23:33:15.344Z,20.58
2018-07-26T23:35:44.635Z,20.46
2018-07-26T23:38:13.895Z,20.39
2018-07-26T23:40:43.203Z,20.34
2018-07-26T23:43:12.502Z,20.26
2018-07-26T23:45:41.757Z,20.27
2018-07-26T23:48:11.032Z,20.17
2018-07-26T23:50:40.410Z,20.08
2018-07-26T23:53:09.716Z,20.12
2018-07-26T23:55:39.026Z,20.16
2018-07-26T23:58:08.323Z,20.25
